Time;durP1;ratioP1;P1;durP2;ratioP2;P2;SDS_P1;SDS_P2;PMS_P1;PMS_P2;Temp;Humidity;BMP_temperature;BMP_pressure;BME280_temperature;BME280_humidity;BME280_pressure;Samples;Min_cycle;Max_cycle;Signal;HPM_P1;HPM_P2
2021/12/29 00:00:12;;;;;;;47.05;14.80;;;7.00;99.90;;;;;;5041973;28;20049;-70
2021/12/29 00:02:37;;;;;;;;;;;7.00;99.90;;;;;;5041691;28;20041;-70
2021/12/29 00:05:07;;;;;;;43.83;14.80;;;7.00;99.90;;;;;;5044630;28;19924;-70
2021/12/29 00:07:33;;;;;;;51.55;15.52;;;7.00;99.90;;;;;;5045670;28;20481;-70
2021/12/29 00:10:01;;;;;;;42.97;14.30;;;7.00;99.90;;;;;;5044435;28;20115;-70
2021/12/29 00:12:27;;;;;;;54.33;14.47;;;6.90;99.90;;;;;;5046400;28;20124;-70
2021/12/29 00:14:53;;;;;;;43.28;13.73;;;6.90;99.90;;;;;;5045514;28;20514;-70
2021/12/29 00:17:20;;;;;;;42.55;14.40;;;6.90;99.90;;;;;;5043192;28;20045;-70
2021/12/29 00:19:46;;;;;;;39.15;13.80;;;6.90;99.90;;;;;;5013969;28;20048;-70
2021/12/29 00:22:12;;;;;;;57.40;14.77;;;6.90;99.90;;;;;;5014987;28;20349;-70
2021/12/29 00:24:39;;;;;;;37.75;12.55;;;6.90;99.90;;;;;;5030755;28;20037;-70
2021/12/29 00:27:06;;;;;;;46.22;14.93;;;6.80;99.90;;;;;;5049419;28;20076;-70
2021/12/29 00:29:33;;;;;;;40.47;13.93;;;6.90;99.90;;;;;;5030873;28;20052;-70
2021/12/29 00:31:59;;;;;;;59.47;15.10;;;6.90;99.90;;;;;;5029931;28;20060;-70
2021/12/29 00:34:25;;;;;;;41.58;13.20;;;6.90;99.90;;;;;;5046745;28;20033;-70
2021/12/29 00:36:51;;;;;;;47.28;13.65;;;6.90;99.90;;;;;;5013651;28;20103;-70
2021/12/29 00:39:17;;;;;;;60.00;15.57;;;6.90;99.90;;;;;;5031229;28;20086;-70
2021/12/29 00:41:42;;;;;;;53.30;14.40;;;6.90;99.90;;;;;;5046772;28;20051;-70
2021/12/29 00:44:08;;;;;;;46.60;13.93;;;6.90;99.90;;;;;;5046646;28;20045;-70
2021/12/29 00:46:38;;;;;;;39.10;13.15;;;6.90;99.90;;;;;;5030412;28;20380;-70
2021/12/29 00:49:05;;;;;;;52.75;14.10;;;6.90;99.90;;;;;;5044026;28;20534;-70
2021/12/29 00:51:31;;;;;;;51.15;15.52;;;6.90;99.90;;;;;;5013391;28;20041;-71
2021/12/29 00:54:01;;;;;;;47.75;15.52;;;7.00;99.90;;;;;;5047246;28;20064;-70
2021/12/29 00:56:26;;;;;;;59.55;15.90;;;7.00;99.90;;;;;;5029935;28;20283;-70
2021/12/29 00:58:52;;;;;;;56.33;17.15;;;7.00;99.90;;;;;;5046773;28;20136;-71
2021/12/29 01:01:18;;;;;;;73.78;18.10;;;7.00;99.90;;;;;;5042855;28;20033;-70
2021/12/29 01:03:44;;;;;;;70.55;17.75;;;7.10;99.90;;;;;;4997024;28;20130;-70
2021/12/29 01:06:11;;;;;;;74.57;18.48;;;7.10;99.90;;;;;;5013585;28;20057;-70
2021/12/29 01:08:37;;;;;;;76.13;19.35;;;7.10;99.90;;;;;;5045670;28;20045;-70
2021/12/29 01:11:04;;;;;;;106.93;20.90;;;7.20;99.90;;;;;;5046474;28;20045;-70
2021/12/29 01:13:33;;;;;;;97.57;20.77;;;7.20;99.90;;;;;;5045580;28;20052;-70
2021/12/29 01:18:32;;;;;;;140.43;22.80;;;7.10;99.90;;;;;;5041968;28;20052;-74
2021/12/29 01:21:01;;;;;;;189.68;25.27;;;7.20;99.90;;;;;;5046810;28;20064;-74
2021/12/29 01:23:27;;;;;;;169.35;25.55;;;7.20;99.90;;;;;;5026784;28;20033;-74
2021/12/29 01:25:56;;;;;;;157.48;24.42;;;7.10;99.90;;;;;;5043198;28;20049;-75
2021/12/29 01:28:24;;;;;;;169.82;24.65;;;7.10;99.90;;;;;;5028201;28;20037;-75
2021/12/29 01:30:50;;;;;;;178.70;25.50;;;7.10;99.90;;;;;;5027792;28;20203;-70
2021/12/29 01:33:16;;;;;;;240.43;28.00;;;7.10;99.90;;;;;;5045294;28;20499;-69
2021/12/29 01:35:42;;;;;;;178.55;23.88;;;7.10;99.90;;;;;;5045420;28;20377;-70
2021/12/29 01:38:09;;;;;;;268.58;30.58;;;7.10;99.90;;;;;;5046295;28;20056;-70
2021/12/29 01:40:36;;;;;;;275.73;28.05;;;7.10;99.90;;;;;;5045122;28;20052;-70
2021/12/29 01:43:04;;;;;;;240.32;25.95;;;7.10;99.90;;;;;;5045224;28;20496;-70
2021/12/29 01:45:30;;;;;;;226.95;29.73;;;7.20;99.90;;;;;;5045233;28;20385;-69
2021/12/29 01:47:56;;;;;;;251.95;31.02;;;7.20;99.90;;;;;;5045978;28;20484;-70
2021/12/29 01:50:22;;;;;;;209.20;26.98;;;7.20;99.90;;;;;;5025752;28;20052;-69
2021/12/29 01:52:54;;;;;;;246.00;29.20;;;7.20;99.90;;;;;;5043394;28;20045;-70
2021/12/29 01:55:25;;;;;;;315.52;34.00;;;7.20;99.90;;;;;;5045603;28;20056;-70
2021/12/29 01:57:52;;;;;;;237.82;28.70;;;7.30;99.90;;;;;;5029187;28;20057;-70
2021/12/29 02:00:23;;;;;;;249.57;28.98;;;7.30;99.90;;;;;;5043114;28;20377;-70
2021/12/29 02:02:49;;;;;;;236.32;27.42;;;7.30;99.90;;;;;;5041246;28;20083;-70
2021/12/29 02:05:16;;;;;;;215.75;25.23;;;7.30;99.90;;;;;;5027467;28;20582;-70
2021/12/29 02:07:42;;;;;;;199.00;24.88;;;7.30;99.90;;;;;;5028362;28;20563;-70
2021/12/29 02:10:10;;;;;;;147.13;21.17;;;7.40;99.90;;;;;;5029567;28;20676;-70
2021/12/29 02:12:37;;;;;;;194.75;24.67;;;7.40;99.90;;;;;;5045003;28;20092;-69
2021/12/29 02:15:06;;;;;;;244.55;27.17;;;7.40;99.90;;;;;;5046403;28;20801;-70
2021/12/29 02:17:32;;;;;;;253.95;26.35;;;7.40;99.90;;;;;;5043194;28;20037;-70
2021/12/29 02:20:00;;;;;;;202.93;23.30;;;7.40;99.90;;;;;;5045483;28;20041;-70
2021/12/29 02:22:43;;;;;;;210.43;21.15;;;7.40;99.90;;;;;;5046704;28;21100;-70
2021/12/29 02:27:52;;;;;;;140.18;19.23;;;7.40;99.90;;;;;;5043799;28;20082;-70
2021/12/29 02:30:21;;;;;;;167.77;20.75;;;7.40;99.90;;;;;;5044787;28;20091;-70
2021/12/29 02:32:49;;;;;;;137.10;18.75;;;7.40;99.90;;;;;;5042466;28;20056;-69
2021/12/29 02:35:16;;;;;;;101.10;17.40;;;7.40;99.90;;;;;;5044729;28;20503;-69
2021/12/29 02:37:43;;;;;;;121.00;19.00;;;7.40;99.90;;;;;;5027850;28;20049;-74
2021/12/29 02:40:11;;;;;;;110.68;18.42;;;7.40;99.90;;;;;;5028246;28;20045;-74
2021/12/29 02:42:41;;;;;;;123.93;19.80;;;7.50;99.90;;;;;;5027653;28;20128;-74
2021/12/29 02:45:09;;;;;;;123.57;19.95;;;7.50;99.90;;;;;;5012097;28;20037;-74
2021/12/29 02:47:35;;;;;;;112.20;19.58;;;7.50;99.90;;;;;;5027197;28;20565;-74
2021/12/29 02:50:01;;;;;;;102.28;18.25;;;7.50;99.90;;;;;;5027265;28;20057;-73
2021/12/29 02:52:27;;;;;;;113.50;20.08;;;7.60;99.90;;;;;;5027274;28;20571;-74
2021/12/29 02:54:53;;;;;;;111.72;21.70;;;7.50;99.90;;;;;;5023431;28;20523;-74
2021/12/29 02:57:19;;;;;;;102.88;20.70;;;7.60;99.90;;;;;;5027721;28;20040;-74
2021/12/29 02:59:45;;;;;;;126.63;22.70;;;7.60;99.90;;;;;;5043197;28;20496;-74
2021/12/29 03:02:11;;;;;;;142.85;24.75;;;7.60;99.90;;;;;;5037851;28;20060;-74
2021/12/29 03:04:37;;;;;;;121.00;22.45;;;7.60;99.90;;;;;;5027935;28;20037;-74
2021/12/29 03:07:03;;;;;;;122.85;25.02;;;7.60;99.90;;;;;;5013224;28;20087;-74
2021/12/29 03:09:29;;;;;;;129.32;25.05;;;7.60;99.90;;;;;;5045280;28;20487;-74
2021/12/29 03:11:55;;;;;;;155.30;26.50;;;7.60;99.90;;;;;;5045796;28;20456;-74
2021/12/29 03:14:21;;;;;;;149.15;25.88;;;7.60;99.90;;;;;;5012647;28;20131;-74
2021/12/29 03:16:47;;;;;;;117.30;24.73;;;7.60;99.90;;;;;;5019637;28;20761;-75
2021/12/29 03:19:13;;;;;;;115.95;25.17;;;7.60;99.90;;;;;;5039004;28;20546;-74
2021/12/29 03:21:40;;;;;;;105.25;24.33;;;7.60;99.90;;;;;;5044838;28;20041;-74
2021/12/29 03:24:07;;;;;;;104.72;25.27;;;7.70;99.90;;;;;;5039528;28;20049;-74
2021/12/29 03:26:33;;;;;;;130.15;27.75;;;7.60;99.90;;;;;;5036022;28;20045;-73
2021/12/29 03:29:00;;;;;;;109.28;26.63;;;7.70;99.90;;;;;;5045657;28;20057;-73
2021/12/29 03:31:30;;;;;;;109.28;27.73;;;7.70;99.90;;;;;;5028348;28;20132;-74
2021/12/29 03:33:56;;;;;;;;;;;7.70;99.90;;;;;;5020643;28;20065;-74
2021/12/29 03:36:22;;;;;;;103.05;27.10;;;7.70;99.90;;;;;;5012709;28;19928;-74
2021/12/29 03:38:50;;;;;;;100.90;28.52;;;7.70;99.90;;;;;;5047119;28;20606;-74
2021/12/29 03:41:18;;;;;;;108.15;29.45;;;7.80;99.90;;;;;;5007122;28;20044;-70
2021/12/29 03:43:45;;;;;;;92.95;28.65;;;7.70;99.90;;;;;;5048466;28;20037;-70
2021/12/29 03:46:12;;;;;;;92.55;29.25;;;7.80;99.90;;;;;;5049950;28;20053;-70
2021/12/29 03:48:40;;;;;;;98.63;30.40;;;7.80;99.90;;;;;;5044058;28;20064;-70
2021/12/29 03:51:07;;;;;;;96.40;29.52;;;7.70;99.90;;;;;;5049157;28;20060;-71
2021/12/29 03:53:34;;;;;;;121.28;30.23;;;7.70;99.90;;;;;;5049029;28;20048;-70
2021/12/29 03:56:00;;;;;;;104.68;28.48;;;7.70;99.90;;;;;;5049364;28;20579;-70
2021/12/29 03:58:27;;;;;;;99.38;29.20;;;7.70;99.90;;;;;;5050041;28;20044;-70
2021/12/29 04:01:01;;;;;;;117.35;29.40;;;7.80;99.90;;;;;;5047016;28;20057;-70
2021/12/29 04:03:27;;;;;;;89.50;27.42;;;7.70;99.90;;;;;;5048392;28;20047;-70
2021/12/29 04:05:53;;;;;;;80.25;26.95;;;7.70;99.90;;;;;;5048001;28;20045;-75
2021/12/29 04:08:19;;;;;;;75.57;25.35;;;7.80;99.90;;;;;;5031983;28;20044;-70
2021/12/29 04:10:45;;;;;;;82.07;26.65;;;7.80;99.90;;;;;;5030821;28;20056;-70
2021/12/29 04:13:11;;;;;;;73.53;24.75;;;7.80;99.90;;;;;;5030791;28;20112;-70
2021/12/29 04:15:38;;;;;;;91.63;27.05;;;7.80;99.90;;;;;;5012491;28;20041;-70
2021/12/29 04:18:14;;;;;;;116.35;28.60;;;7.80;99.90;;;;;;5047029;28;20791;-70
2021/12/29 04:20:57;;;;;;;75.80;26.30;;;7.80;99.90;;;;;;5047609;28;20076;-70
2021/12/29 04:23:35;;;;;;;77.68;26.73;;;7.80;99.90;;;;;;5062483;28;20053;-70
2021/12/29 04:26:03;;;;;;;80.60;26.02;;;7.80;99.90;;;;;;5046751;28;20506;-71
2021/12/29 04:28:30;;;;;;;83.15;26.45;;;7.80;99.90;;;;;;5029828;28;20045;-71
2021/12/29 04:31:07;;;;;;;81.80;26.02;;;7.80;99.90;;;;;;5046607;28;20044;-70
2021/12/29 04:33:36;;;;;;;98.32;28.77;;;7.80;99.90;;;;;;5045013;28;20049;-71
2021/12/29 04:36:03;;;;;;;90.05;27.33;;;7.80;99.90;;;;;;5046617;28;20037;-71
2021/12/29 04:38:29;;;;;;;81.30;26.20;;;7.80;99.90;;;;;;5046601;28;20049;-70
2021/12/29 04:40:56;;;;;;;68.00;24.88;;;7.80;99.90;;;;;;5046874;28;20542;-70
2021/12/29 04:43:26;;;;;;;78.20;26.35;;;7.80;99.90;;;;;;5030460;28;20136;-71
2021/12/29 04:45:52;;;;;;;69.57;24.98;;;7.90;99.90;;;;;;5047985;28;20041;-71
2021/12/29 04:48:19;;;;;;;87.93;26.60;;;7.80;99.90;;;;;;5028633;28;20431;-71
2021/12/29 04:51:04;;;;;;;74.40;25.55;;;7.90;99.90;;;;;;5012884;28;20116;-71
2021/12/29 04:53:30;;;;;;;63.35;23.80;;;7.90;99.90;;;;;;5027445;28;20046;-75
2021/12/29 04:55:56;;;;;;;79.00;24.65;;;7.90;99.90;;;;;;5029661;28;20106;-75
2021/12/29 04:58:21;;;;;;;74.43;24.40;;;7.90;99.90;;;;;;5013409;28;20106;-75
2021/12/29 05:00:49;;;;;;;81.00;25.15;;;7.90;99.90;;;;;;5025844;28;20515;-75
2021/12/29 05:03:15;;;;;;;65.05;23.02;;;7.90;99.90;;;;;;5060223;28;20122;-75
2021/12/29 05:08:30;;;;;;;80.97;24.92;;;7.90;99.90;;;;;;5015806;28;20052;-75
2021/12/29 05:11:05;;;;;;;81.35;23.33;;;7.90;99.90;;;;;;5031946;28;20084;-75
2021/12/29 05:13:36;;;;;;;72.50;23.52;;;8.00;99.90;;;;;;5047878;28;20045;-75
2021/12/29 05:16:02;;;;;;;69.78;24.33;;;8.00;99.90;;;;;;5045977;28;20044;-75
2021/12/29 05:18:31;;;;;;;77.35;25.63;;;8.00;99.90;;;;;;5046091;28;20045;-75
2021/12/29 05:20:58;;;;;;;73.57;25.23;;;8.00;99.90;;;;;;5031750;28;20060;-75
2021/12/29 05:23:27;;;;;;;74.85;25.50;;;8.00;99.90;;;;;;5049113;28;20144;-75
2021/12/29 05:25:55;;;;;;;69.32;24.55;;;8.10;99.90;;;;;;5048603;28;20068;-75
2021/12/29 05:28:23;;;;;;;64.25;24.50;;;8.00;99.90;;;;;;5047872;28;20115;-75
2021/12/29 05:30:50;;;;;;;61.15;22.92;;;8.00;99.90;;;;;;5046915;28;20049;-75
2021/12/29 05:33:16;;;;;;;68.07;24.23;;;8.00;99.90;;;;;;5039030;28;20048;-75
2021/12/29 05:35:42;;;;;;;84.68;25.08;;;8.00;99.90;;;;;;5030547;28;20053;-75
2021/12/29 05:38:09;;;;;;;58.28;24.13;;;8.00;99.90;;;;;;5048657;28;20395;-75
2021/12/29 05:40:35;;;;;;;70.45;25.85;;;8.00;99.90;;;;;;5031828;28;20146;-75
2021/12/29 05:43:00;;;;;;;58.15;24.77;;;7.90;99.90;;;;;;5031740;28;20480;-75
2021/12/29 05:45:28;;;;;;;59.38;25.30;;;7.90;99.90;;;;;;5031387;28;20047;-75
2021/12/29 05:47:57;;;;;;;66.38;25.50;;;8.00;99.90;;;;;;5042876;28;20049;-75
2021/12/29 05:50:27;;;;;;;73.13;26.48;;;7.90;99.90;;;;;;5041945;28;20044;-75
2021/12/29 05:52:54;;;;;;;56.95;23.58;;;8.00;99.90;;;;;;5011088;28;20049;-75
2021/12/29 05:55:21;;;;;;;57.90;24.83;;;8.00;99.90;;;;;;5026947;28;20065;-75
2021/12/29 05:57:47;;;;;;;78.05;26.77;;;7.90;99.90;;;;;;5043487;28;20049;-75
2021/12/29 06:00:15;;;;;;;70.65;25.08;;;7.90;99.90;;;;;;5011151;28;20492;-71
2021/12/29 06:02:41;;;;;;;61.53;25.98;;;7.90;99.90;;;;;;5036417;28;20369;-71
2021/12/29 06:05:08;;;;;;;60.35;25.70;;;7.90;99.90;;;;;;5048326;28;20127;-71
2021/12/29 06:07:34;;;;;;;69.22;25.65;;;7.90;99.90;;;;;;5029904;28;20049;-70
2021/12/29 06:10:01;;;;;;;65.60;26.30;;;7.90;99.90;;;;;;5047499;28;20045;-71
2021/12/29 06:12:27;;;;;;;71.32;27.98;;;7.90;99.90;;;;;;5046206;28;20059;-71
2021/12/29 06:14:53;;;;;;;79.38;27.13;;;8.00;99.90;;;;;;5030325;28;20045;-70
2021/12/29 06:17:19;;;;;;;64.20;25.45;;;8.00;99.90;;;;;;5014560;28;20807;-70
2021/12/29 06:19:44;;;;;;;81.20;27.15;;;7.90;99.90;;;;;;5019169;28;20128;-71
2021/12/29 06:22:11;;;;;;;73.88;26.33;;;8.00;99.90;;;;;;5026977;28;20579;-71
2021/12/29 06:24:41;;;;;;;80.22;26.27;;;8.00;99.90;;;;;;5027471;28;20044;-70
2021/12/29 06:27:07;;;;;;;;;;;8.00;99.90;;;;;;5028284;28;20561;-70
2021/12/29 06:29:33;;;;;;;77.78;26.92;;;7.90;99.90;;;;;;5046039;28;19920;-70
2021/12/29 06:32:00;;;;;;;76.45;25.75;;;7.90;99.90;;;;;;5026628;28;21173;-70
2021/12/29 06:34:30;;;;;;;85.05;27.63;;;7.90;99.90;;;;;;5008420;28;20215;-70
2021/12/29 06:36:58;;;;;;;69.03;25.63;;;7.90;99.90;;;;;;5046523;28;20057;-71
2021/12/29 06:39:24;;;;;;;63.25;23.42;;;7.90;99.90;;;;;;5046620;28;20044;-71
2021/12/29 06:41:50;;;;;;;75.63;24.85;;;7.90;99.90;;;;;;5046098;28;20443;-71
2021/12/29 06:44:16;;;;;;;74.90;24.23;;;7.90;99.90;;;;;;5045842;28;20157;-70
2021/12/29 06:46:42;;;;;;;65.25;23.40;;;7.90;99.90;;;;;;4996402;28;20048;-71
2021/12/29 06:49:10;;;;;;;96.93;25.05;;;7.90;99.90;;;;;;5028358;28;20561;-71
2021/12/29 06:51:36;;;;;;;69.57;23.83;;;7.90;99.90;;;;;;5045738;28;20045;-70
2021/12/29 06:54:02;;;;;;;75.93;24.10;;;7.90;99.90;;;;;;5047768;28;20044;-71
2021/12/29 06:56:29;;;;;;;60.38;22.20;;;7.90;99.90;;;;;;5045096;28;20045;-71
2021/12/29 06:58:54;;;;;;;69.80;22.15;;;7.90;99.90;;;;;;5008822;28;20053;-70
2021/12/29 07:01:20;;;;;;;56.25;20.63;;;7.90;99.90;;;;;;5021717;28;20036;-71
2021/12/29 07:03:46;;;;;;;83.15;23.08;;;7.90;99.90;;;;;;5037557;28;20093;-70
2021/12/29 07:06:12;;;;;;;71.93;22.10;;;7.90;99.90;;;;;;5044164;28;20052;-71
2021/12/29 07:08:40;;;;;;;74.22;21.35;;;7.90;99.90;;;;;;5027353;28;20048;-71
2021/12/29 07:11:06;;;;;;;97.88;23.90;;;7.90;99.90;;;;;;5037700;28;20042;-71
2021/12/29 07:13:32;;;;;;;70.82;24.73;;;7.90;99.90;;;;;;5023691;28;20586;-70
2021/12/29 07:15:58;;;;;;;97.43;24.95;;;7.90;99.90;;;;;;5043069;28;20098;-71
2021/12/29 07:18:23;;;;;;;79.95;24.58;;;7.90;99.90;;;;;;5011828;28;20151;-71
2021/12/29 07:20:49;;;;;;;84.18;25.23;;;7.90;99.90;;;;;;5027940;28;20526;-75
2021/12/29 07:23:15;;;;;;;77.30;23.40;;;7.90;99.90;;;;;;5041681;28;20041;-75
2021/12/29 07:25:41;;;;;;;94.85;25.30;;;7.90;99.90;;;;;;4992246;28;20057;-75
2021/12/29 07:28:07;;;;;;;89.57;24.88;;;7.90;99.90;;;;;;5025399;28;20480;-75
2021/12/29 07:30:33;;;;;;;88.00;25.17;;;7.90;99.90;;;;;;5018529;28;20061;-75
2021/12/29 07:33:02;;;;;;;92.57;24.48;;;7.80;99.90;;;;;;5038554;28;20045;-75
2021/12/29 07:35:30;;;;;;;105.57;25.00;;;7.90;99.90;;;;;;5039074;28;20052;-75
2021/12/29 07:37:56;;;;;;;106.35;25.85;;;7.90;99.90;;;;;;5019843;28;20055;-75
2021/12/29 07:40:22;;;;;;;72.03;23.05;;;7.90;99.90;;;;;;5054771;28;20052;-71
2021/12/29 07:42:48;;;;;;;109.50;25.27;;;7.90;99.90;;;;;;5042289;28;20407;-71
2021/12/29 07:45:14;;;;;;;110.10;25.70;;;7.90;99.90;;;;;;5040486;28;20049;-71
2021/12/29 07:47:46;;;;;;;110.00;25.58;;;7.90;99.90;;;;;;5022702;28;20652;-72
2021/12/29 07:50:19;;;;;;;114.25;25.50;;;7.90;99.90;;;;;;5057119;28;20045;-71
2021/12/29 07:52:48;;;;;;;114.57;26.67;;;7.90;99.90;;;;;;5024864;28;20059;-71
2021/12/29 07:55:15;;;;;;;99.07;25.00;;;8.00;99.90;;;;;;5023618;28;20063;-71
2021/12/29 07:57:42;;;;;;;101.03;26.73;;;7.90;99.90;;;;;;5026030;28;20052;-71
2021/12/29 08:00:08;;;;;;;88.68;24.50;;;7.90;99.90;;;;;;5010903;28;20053;-71
2021/12/29 08:02:36;;;;;;;91.13;25.10;;;7.90;99.90;;;;;;5043126;28;20045;-71
2021/12/29 08:05:03;;;;;;;72.25;23.02;;;7.90;99.90;;;;;;5041701;28;20037;-71
2021/12/29 08:07:30;;;;;;;88.18;24.85;;;7.90;99.90;;;;;;5043244;28;20052;-71
2021/12/29 08:09:56;;;;;;;85.15;25.67;;;7.90;99.90;;;;;;5026494;28;20045;-71
2021/12/29 08:12:22;;;;;;;88.10;23.15;;;7.90;99.90;;;;;;5045220;28;20404;-71
2021/12/29 08:14:49;;;;;;;85.55;22.45;;;7.90;99.90;;;;;;5044719;28;20427;-71
2021/12/29 08:17:15;;;;;;;91.38;24.55;;;7.90;99.90;;;;;;5041280;28;20045;-71
2021/12/29 08:19:41;;;;;;;90.65;23.88;;;7.90;99.90;;;;;;5026310;28;20135;-71
2021/12/29 08:22:07;;;;;;;97.03;24.30;;;7.90;99.90;;;;;;5045484;28;20543;-71
2021/12/29 08:24:33;;;;;;;97.35;25.13;;;7.90;99.90;;;;;;5044288;28;20041;-71
2021/12/29 08:26:59;;;;;;;124.47;26.83;;;7.90;99.90;;;;;;5046080;28;20464;-71
2021/12/29 08:29:25;;;;;;;89.60;23.65;;;7.90;99.90;;;;;;5047182;28;20527;-71
2021/12/29 08:31:51;;;;;;;128.32;25.85;;;7.90;99.90;;;;;;5061337;28;20420;-71
2021/12/29 08:34:16;;;;;;;122.60;27.30;;;7.90;99.90;;;;;;5046617;28;20381;-71
2021/12/29 08:36:42;;;;;;;122.68;24.58;;;7.90;99.90;;;;;;5029910;28;20037;-71
2021/12/29 08:39:08;;;;;;;123.97;25.65;;;7.80;99.90;;;;;;5029182;28;20130;-71
2021/12/29 08:41:35;;;;;;;104.15;22.50;;;7.80;99.90;;;;;;5045059;28;20073;-71
2021/12/29 08:44:01;;;;;;;119.25;23.50;;;7.80;99.90;;;;;;5047215;28;20128;-71
2021/12/29 08:46:28;;;;;;;83.70;20.15;;;7.90;99.90;;;;;;5047541;28;20045;-71
2021/12/29 08:48:55;;;;;;;98.20;22.67;;;7.90;99.90;;;;;;5048069;28;20059;-71
2021/12/29 08:51:24;;;;;;;94.30;19.67;;;7.90;99.90;;;;;;5045219;28;20052;-71
2021/12/29 08:53:50;;;;;;;89.47;20.95;;;7.90;99.90;;;;;;5046311;28;20057;-71
2021/12/29 08:56:16;;;;;;;98.85;21.83;;;7.90;99.90;;;;;;5031626;28;20059;-71
2021/12/29 08:58:44;;;;;;;112.00;22.00;;;7.80;99.90;;;;;;5047549;28;20599;-71
2021/12/29 09:01:10;;;;;;;132.80;23.50;;;7.90;99.90;;;;;;5045059;28;20056;-71
2021/12/29 09:03:36;;;;;;;107.10;22.75;;;7.90;99.90;;;;;;5046602;28;20033;-71
2021/12/29 09:06:02;;;;;;;127.45;23.88;;;7.90;99.90;;;;;;5048194;28;20493;-72
2021/12/29 09:08:31;;;;;;;125.80;23.48;;;7.90;99.90;;;;;;5029304;28;20044;-72
2021/12/29 09:10:57;;;;;;;157.27;24.77;;;7.90;99.90;;;;;;5047770;28;20057;-71
2021/12/29 09:13:23;;;;;;;180.65;27.35;;;7.90;99.90;;;;;;5046548;28;20434;-71
2021/12/29 09:15:56;;;;;;;188.25;27.65;;;7.90;99.90;;;;;;5044402;28;20089;-72
2021/12/29 09:18:23;;;;;;;169.02;26.23;;;8.00;99.90;;;;;;5030026;28;20083;-71
2021/12/29 09:20:49;;;;;;;224.27;27.90;;;8.00;99.90;;;;;;5046135;28;20049;-76
2021/12/29 09:23:16;;;;;;;214.80;27.52;;;8.00;99.90;;;;;;5047696;28;20049;-76
2021/12/29 09:25:44;;;;;;;235.75;26.90;;;8.00;99.90;;;;;;5045326;28;20568;-76
2021/12/29 09:28:13;;;;;;;222.35;25.73;;;8.00;99.90;;;;;;5028580;28;20041;-76
2021/12/29 09:30:42;;;;;;;234.65;28.75;;;8.00;99.90;;;;;;5044996;28;20041;-76
2021/12/29 09:33:08;;;;;;;266.55;28.00;;;8.00;99.90;;;;;;5028669;28;20118;-76
2021/12/29 09:35:34;;;;;;;195.25;25.52;;;8.00;99.90;;;;;;5010468;28;20045;-76
2021/12/29 09:38:00;;;;;;;236.70;27.80;;;8.00;99.90;;;;;;5037445;28;20055;-75
2021/12/29 09:40:26;;;;;;;244.55;27.27;;;8.00;99.90;;;;;;5036909;28;20518;-76
2021/12/29 09:42:54;;;;;;;171.88;23.50;;;8.00;99.90;;;;;;5055256;28;20052;-76
2021/12/29 09:45:21;;;;;;;84.53;18.90;;;8.10;99.90;;;;;;5026860;28;20396;-76
2021/12/29 09:47:47;;;;;;;49.08;16.33;;;8.10;99.90;;;;;;5036806;28;20081;-76
2021/12/29 09:50:17;;;;;;;74.18;17.98;;;8.10;99.90;;;;;;5036660;28;20063;-76
2021/12/29 09:52:44;;;;;;;42.92;14.32;;;8.20;99.90;;;;;;5017984;28;20400;-77
2021/12/29 09:55:16;;;;;;;55.08;14.65;;;8.20;99.90;;;;;;5036695;28;20408;-76
2021/12/29 09:57:45;;;;;;;53.15;14.57;;;8.20;99.90;;;;;;5034806;28;20503;-76
2021/12/29 10:00:29;;;;;;;42.08;13.90;;;8.20;99.90;;;;;;5044234;28;20091;-77
2021/12/29 10:02:58;;;;;;;43.30;13.00;;;8.30;99.90;;;;;;5029188;28;20100;-76
2021/12/29 10:05:27;;;;;;;40.17;12.73;;;8.30;99.90;;;;;;5045762;28;20076;-76
2021/12/29 10:08:01;;;;;;;35.67;12.02;;;8.40;99.90;;;;;;5027039;28;20695;-76
2021/12/29 10:10:31;;;;;;;31.58;12.27;;;8.40;99.90;;;;;;5043702;28;20557;-76
2021/12/29 10:12:57;;;;;;;32.78;12.40;;;8.40;99.90;;;;;;5013540;28;20489;-71
2021/12/29 10:15:32;;;;;;;36.55;12.35;;;8.50;99.90;;;;;;5045534;28;20102;-71
2021/12/29 10:18:10;;;;;;;29.83;11.88;;;8.50;99.90;;;;;;5044087;28;20554;-71
2021/12/29 10:20:52;;;;;;;34.65;12.65;;;8.50;99.90;;;;;;5044940;28;20419;-71
2021/12/29 10:23:31;;;;;;;33.88;12.05;;;8.50;99.90;;;;;;5042176;28;20048;-71
2021/12/29 10:26:07;;;;;;;42.42;14.50;;;8.50;99.90;;;;;;5046610;28;20044;-71
2021/12/29 10:28:33;;;;;;;35.53;13.75;;;8.60;99.90;;;;;;5044548;28;20084;-71
2021/12/29 10:31:13;;;;;;;34.83;14.15;;;8.60;99.90;;;;;;5027116;28;20060;-71
2021/12/29 10:33:52;;;;;;;40.80;14.63;;;8.50;99.90;;;;;;5042586;28;20154;-72
2021/12/29 10:36:25;;;;;;;36.13;14.95;;;8.50;99.90;;;;;;5026898;28;20067;-71
2021/12/29 10:39:25;;;;;;;37.25;14.32;;;8.60;99.90;;;;;;5024556;28;20064;-71
2021/12/29 10:42:02;;;;;;;33.92;14.23;;;8.60;99.90;;;;;;5033572;28;20087;-72
2021/12/29 10:44:39;;;;;;;30.63;14.75;;;8.50;99.90;;;;;;5042576;28;20484;-72
2021/12/29 10:47:19;;;;;;;32.72;14.02;;;8.60;99.90;;;;;;5044971;28;20049;-72
2021/12/29 10:50:10;;;;;;;36.00;14.80;;;8.50;99.90;;;;;;5043651;28;20492;-72
2021/12/29 10:52:50;;;;;;;38.53;15.60;;;8.50;99.90;;;;;;5045586;28;20056;-72
2021/12/29 10:55:33;;;;;;;31.52;15.85;;;8.50;99.90;;;;;;5029354;28;20044;-72
2021/12/29 10:58:07;;;;;;;38.28;16.60;;;8.50;99.90;;;;;;5046084;28;20052;-71
2021/12/29 11:00:35;;;;;;;44.70;17.90;;;8.50;99.90;;;;;;5044826;28;20037;-71
2021/12/29 11:03:14;;;;;;;35.05;16.75;;;8.50;99.90;;;;;;5044845;28;20092;-72
2021/12/29 11:05:47;;;;;;;40.30;17.83;;;8.50;99.90;;;;;;5044408;28;20114;-72
2021/12/29 11:08:13;;;;;;;45.05;17.38;;;8.50;99.90;;;;;;5046318;28;20364;-71
2021/12/29 11:10:44;;;;;;;37.50;16.08;;;8.50;99.90;;;;;;5011870;28;20098;-71
2021/12/29 11:13:12;;;;;;;41.25;16.92;;;8.70;99.90;;;;;;5046234;28;20044;-72
2021/12/29 11:15:41;;;;;;;32.97;15.27;;;8.60;99.90;;;;;;5025458;28;20041;-72
2021/12/29 11:18:13;;;;;;;37.35;15.30;;;8.60;99.90;;;;;;5046119;28;20041;-72
2021/12/29 11:20:40;;;;;;;36.13;14.43;;;8.60;99.90;;;;;;5044240;28;20097;-72
2021/12/29 11:23:14;;;;;;;38.65;15.93;;;8.60;99.90;;;;;;5058883;28;20041;-72
2021/12/29 11:25:43;;;;;;;43.33;17.25;;;8.60;99.90;;;;;;5039881;28;20037;-72
2021/12/29 11:28:19;;;;;;;38.45;17.83;;;8.70;99.90;;;;;;5044721;28;20052;-72
2021/12/29 11:30:48;;;;;;;38.65;18.42;;;8.70;99.90;;;;;;5026389;28;20495;-72
2021/12/29 11:33:14;;;;;;;36.38;16.75;;;8.70;99.90;;;;;;5044777;28;20068;-72
2021/12/29 11:35:53;;;;;;;38.58;15.57;;;8.80;99.90;;;;;;5027137;28;20041;-72
2021/12/29 11:38:21;;;;;;;37.72;15.73;;;8.80;99.90;;;;;;5028112;28;20063;-72
2021/12/29 11:40:53;;;;;;;41.55;15.65;;;8.90;99.90;;;;;;5041468;28;20045;-72
2021/12/29 11:43:20;;;;;;;35.47;15.00;;;8.90;99.90;;;;;;5027893;28;20125;-72
2021/12/29 11:45:49;;;;;;;42.28;14.00;;;8.90;99.90;;;;;;5041219;28;20037;-72
2021/12/29 11:48:20;;;;;;;30.27;13.77;;;8.90;99.90;;;;;;5041756;28;20053;-72
2021/12/29 11:50:53;;;;;;;34.53;13.55;;;8.90;99.90;;;;;;5042732;28;20045;-72
2021/12/29 11:53:32;;;;;;;31.48;11.23;;;8.90;99.90;;;;;;5042433;28;20087;-71
2021/12/29 11:56:03;;;;;;;24.05;10.25;;;8.90;99.90;;;;;;5044000;28;20098;-72
2021/12/29 11:58:41;;;;;;;25.27;8.57;;;8.80;99.90;;;;;;5044425;28;20079;-72
2021/12/29 12:01:16;;;;;;;20.85;7.82;;;8.80;99.90;;;;;;5044360;28;20045;-72
2021/12/29 12:03:50;;;;;;;29.40;8.45;;;8.80;99.90;;;;;;5044064;28;20611;-72
2021/12/29 12:06:33;;;;;;;24.52;8.00;;;8.80;99.90;;;;;;5048536;28;20048;-72
2021/12/29 12:09:07;;;;;;;24.40;8.80;;;8.70;99.90;;;;;;5030877;28;20831;-72
2021/12/29 12:11:35;;;;;;;23.42;8.90;;;8.80;99.90;;;;;;5044347;28;20056;-72
2021/12/29 12:14:02;;;;;;;21.30;10.40;;;8.70;99.90;;;;;;5047783;28;20060;-72
2021/12/29 12:16:29;;;;;;;25.27;10.38;;;8.70;99.90;;;;;;5046773;28;20792;-72
2021/12/29 12:18:57;;;;;;;21.58;10.80;;;8.70;99.90;;;;;;5045492;28;20071;-72
2021/12/29 12:21:28;;;;;;;26.52;10.88;;;8.70;99.90;;;;;;5048578;28;20039;-72
2021/12/29 12:24:07;;;;;;;26.73;10.38;;;8.70;99.90;;;;;;5030644;28;20103;-72
2021/12/29 12:26:33;;;;;;;21.77;11.75;;;8.60;99.90;;;;;;5044569;28;20036;-72
2021/12/29 12:28:59;;;;;;;26.40;11.32;;;8.60;99.90;;;;;;5047688;28;20041;-72
2021/12/29 12:31:31;;;;;;;26.00;10.93;;;8.60;99.90;;;;;;5025433;28;20706;-72
2021/12/29 12:34:12;;;;;;;22.85;11.20;;;8.60;99.90;;;;;;5030284;28;20480;-72
2021/12/29 12:36:39;;;;;;;27.15;11.77;;;8.60;99.90;;;;;;5046827;28;20048;-72
2021/12/29 12:39:15;;;;;;;29.83;12.25;;;8.60;99.90;;;;;;5027359;28;20049;-72
2021/12/29 12:41:44;;;;;;;35.53;12.00;;;8.60;99.90;;;;;;5049909;28;20100;-72
2021/12/29 12:44:10;;;;;;;25.95;11.38;;;8.60;99.90;;;;;;5037239;28;20072;-72
2021/12/29 12:47:12;;;;;;;27.75;12.38;;;8.60;99.90;;;;;;5032191;28;20292;-72
2021/12/29 12:49:51;;;;;;;25.17;11.93;;;8.60;99.90;;;;;;5034401;28;20052;-72